Benvolgut visitant, si us plau, ingressa Recuperar contrasenya
AVAMET paisatges
Union Alcoyana

Dolores

Dades diàries. Acumulats / Últims 30 dies disponibles

Data Temperatura (°C) Humitat rel. (%) Pressió rel. (hPa) Vent (km/h) Precipitació
Mínima Mitjana Màxima Amplitud
tèrmica
Mínima Mitjana Màxima Mínima Mitjana Màxima Predom. Mitjana Ràfega
màxima
Total
(mm)
Índex-n
Mínima Mitjana Màxima Mínima Mitjana Màxima n
0 a 1
P0 max
mm 5'
Dades mensuals acumulades fins l'últim dia disponible
05/2022 11,5 14,4 17,7 19,8 17,2 25,5 30,4 18,9 34 68 92 1.007 1.017 1.023   4,5 35,4 20,6
Dades anuals acumulades fins l'últim dia disponible
2022 1,9 9,9 18,6 14,2 10,8 19,5 30,4 28,5 10 70 96 998 1.018 1.034   5,6 53,1 277,0
Últims 30 dies disponibles
20-05-2022 17,7     24,3     30,4 12,7 40 58 79 1.019 1.020 1.021 SSE 7,0 35,4 0,0
19-05-2022 16,4     22,9     28,6 12,2 38 62 80 1.017 1.018 1.020 S 6,0 33,8 0,0
18-05-2022 17,1     22,9     28,1 11,0 46 69 84 1.016 1.017 1.018 SE 3,4 22,5 0,0
17-05-2022 17,4     22,8     29,4 12,0 44 70 88 1.016 1.017 1.019 SE 3,3 20,9 0,0
16-05-2022 16,8     22,0     27,7 10,9 51 75 92 1.016 1.017 1.019 SE 3,5 20,9 0,0
15-05-2022 14,6     20,9     27,4 12,8 42 64 84 1.014 1.015 1.016 SE 3,5 22,5 0,0
14-05-2022 15,2     20,8     26,6 11,4 34 66 88 1.015 1.017 1.019 SSE 3,8 20,9 0,0
13-05-2022 15,3     20,0     25,9 10,6 52 73 89 1.019 1.019 1.020 S 4,4 24,1 0,0
12-05-2022 12,3     19,2     25,1 12,8 46 69 86 1.018 1.019 1.020 SSE 4,8 25,7 0,0
11-05-2022 12,5     19,3     25,8 13,3 38 65 84 1.019 1.020 1.022 SE 3,3 20,9 0,0
10-05-2022 13,4     19,4     25,6 12,2 38 60 79 1.020 1.022 1.023 SSO 4,6 24,1 0,0
09-05-2022 12,8     19,2     25,4 12,6 35 61 87 1.019 1.020 1.022 SE 4,6 24,1 0,0
08-05-2022 12,3     18,7     25,6 13,3 34 63 84 1.016 1.018 1.019 S 6,2 35,4 0,0
07-05-2022 12,5     18,6     25,2 12,7 38 65 86 1.018 1.019 1.019 S 3,6 24,1 0,0
06-05-2022 11,5     17,5     24,1 12,6 56 71 89 1.018 1.019 1.021 SSE 4,6 25,7 0,0
05-05-2022 13,8     17,8     22,8 9,0 49 65 88 1.015 1.018 1.021 SSE 4,7 20,9 0,3
04-05-2022 14,0     15,1     17,2 3,2 81 86 90 1.011 1.013 1.016 S 4,0 33,8 19,8 0,32 1,70
03-05-2022 12,4     17,3     22,7 10,3 53 73 88 1.007 1.009 1.012 S 5,0 33,8 0,5
02-05-2022 15,6     18,1     21,8 6,2 56 76 87 1.008 1.011 1.014 E 5,8 32,2 0,0
01-05-2022 13,8     19,1     25,3 11,5 51 65 78 1.013 1.016 1.019 SSE 3,6 22,5 0,0
30-04-2022 11,3     18,4     26,6 15,3 31 62 84 1.017 1.020 1.022 SO 6,2 29,0 0,0
29-04-2022 11,4     16,7     22,6 11,2 47 71 88 1.019 1.021 1.022 SSO 5,9 29,0 0,0
28-04-2022 12,4     14,3     15,9 3,5 74 86 93 1.016 1.018 1.020 SE 2,2 14,5 3,6 0,35 0,80
27-04-2022 13,0     15,0     18,7 5,7 53 76 89 1.012 1.015 1.017 SO 4,3 22,5 1,3
26-04-2022 10,9     15,9     21,3 10,4 43 67 86 1.011 1.013 1.014 SE 3,8 24,1 0,0
25-04-2022 11,2     16,3     21,8 10,6 41 70 86 1.010 1.011 1.013 SE 3,7 22,5 0,0
24-04-2022 10,1     16,3     23,2 13,1 32 56 79 1.009 1.010 1.012 SO 8,0 37,0 0,0
23-04-2022 12,2     16,6     21,7 9,5 27 53 79 998 1.003 1.009 O 11,1 48,3 0,3
22-04-2022 11,8     15,5     19,6 7,8 48 63 72 998 1.002 1.005 SO 5,2 24,1 0,0
21-04-2022 11,7     16,5     22,2 10,5 35 51 65 1.002 1.004 1.005 ONO 10,9 38,6 0,0
Últims 13 mesos disponibles
04/2022 5,0 11,3 16,7 15,7 10,8 20,8 27,1 22,1 38 65 86 1.002 1.012 1.021 SO 6,6 53,1 87,3
03/2022 6,7 10,9 18,6 13,9 13,6 17,9 21,7 15,0 50 77 89 1.002 1.015 1.025 ESE 6,7 48,3 144,0
02/2022 5,1 8,5 12,2 13,0 15,4 18,8 24,5 19,4 40 69 85 1.016 1.023 1.030 SSO 4,9 38,6 4,6
01/2022 1,9 6,1 16,1 10,5 11,4 16,5 24,3 22,4 38 71 89 1.014 1.025 1.031 SO 5,1 53,1 20,5
12/2021 6,2 10,4 15,7 14,0 14,8 18,8 25,0 18,8 42 67 88 1.008 1.019 1.026 O 6,4 51,5 0,3
Tots els anys disponibles
Temperatura (°C)
Humitat relativa (%)
Velocitat del vent i ràfega màxima (km/h)
Direcció del vent (°)
Pressió (hPa)
Precipitació (mm)
Nota sobre les dades: s'avisa a l'usuari de la provisionalitat i no oficialitat d'aquestes dades
Logo AVAMET blanc
Web allotjada a Sollutia
Llicència de Creative CommonsLa web d'AVAMET i els seus continguts estan subjectes a una llicència de
Reconeixement - No Comercial - Compartir igual
Avís legal - Política de privacitat - Política de cookies
NOVES ESTACIONS:  Vila-real - les Solaes (Soci), Calles - Parque de Emergencias (Soci), Bocairent - els Corrals (Soci), Sella - el Xarquer, Xàbia - Far del Cap de la Nau (Soci), Benicàssim - Quadre de Santiago (Soci), Sant Mateu - IES Maestrat (Soci)  / el Palomar (Ajuntament/Soci) / Atzeneta del Maestrat - Pla de Meanes (Ajuntament/Soci) / Onda - Sant Gil (Soci) / Onda - Ràtils CR Cota 220 (Soci) / la Vila Joiosa (Ajuntament/Soci) / Miramar - Platja (Ajuntament/Soci) / Massanassa - IES Massanassa (Soci) / Culla - Pla de les Vinyes (Ajuntament/Soci) - - -